Morganton, NC (28655)

5:25 AM EDT on May 28, 2015 (GMT -0400)
Burkemont | | Change Station
CLOSE
Current Station
Personal Weather Station
Location: Morganton, NC
Elevation: 1188 ft
Nearby Weather Stations

Elev 1188 ft 35.73 °N, 81.69 °W | Updated 38 seconds ago

Overcast
Overcast
61.9 °F
Feels Like 61.9 °F
N
0.0
Wind Variable Wind from ESE
Gusts 0.0 mph

Today
High -- | Low -- °F
--% Chance of Precip.
Yesterday
High -- | Low -- °F
Precip. -- in
6:13 AM 8:34 PM
Waxing Gibbous, 74% visible
Pressure 30.26 in
Visibility 0.5 miles
Clouds Overcast 100 ft
Dew Point 62 °F
Humidity 99%
Rainfall 0.00 in
Snow Depth Not available.
UV 0 out of 12
Pollen .80 out of 12
Air Quality Not available.
Flu Activity No Activity
METAR KMRN 280915Z AUTO 34003KT 1/2SM FG OVC001 15/15 A3026 RMK AO2 T01490149

More Conditions Fewer Conditions

Pressure 30.26 in
Visibility 0.5 miles
Clouds Overcast 100 ft
Dew Point 62 °F
Humidity 99%
Rainfall 0.00 in
Snow Depth Not available.
UV 0 out of 12
Pollen .80 out of 12
Air Quality Not available.
Flu Activity No Activity
METAR KMRN 280915Z AUTO 34003KT 1/2SM FG OVC001 15/15 A3026 RMK AO2 T01490149

More Conditions Fewer Conditions

10-Day Weather Forecast

Almanac

Astronomy

May. 28, 2015 Rise Set
Actual Time
Civil Twilight
Nautical Twilight
Astronomical Twilight
Moon
Length of Visible Light
Length of Day
Tomorrow will be .
, % of the Moon is Illuminated

Today's Extremes

State Highs State Lows

Community

WunderPhotos

Upload Photos

1,824,935 photos uploaded!

WunderBlogs® & News

Nearby

Air Quality

  Air Quality AQ Index Pollutant
Not available.

Snow Depth

Station Depth Elevation

Earthquake Activity

City Distance Mag. Time & Date
Minimum magnitude displayed is 2.5.

Coastal Water Temperatures

Place Temperature

Stations

Nearby Weather Stations

Station Location Temp. Windchill Dew Point Humidity Wind Precip. Elev Updated Type